createdAt,value
2022-11-28T00:00:58.392Z,77790.09
2022-11-28T00:03:26.129Z,77777.38
2022-11-28T00:05:54.037Z,77768.91
2022-11-28T00:08:21.795Z,77777.38
2022-11-28T00:10:50.889Z,77773.16
2022-11-28T00:13:18.601Z,77764.69
2022-11-28T00:15:46.257Z,77760.44
2022-11-28T00:18:14.089Z,77766.78
2022-11-28T00:20:41.740Z,77779.50
2022-11-28T00:23:09.371Z,77794.31
2022-11-28T00:25:37.425Z,77790.09
2022-11-28T00:28:06.476Z,77785.84
2022-11-28T00:30:37.144Z,77792.22
2022-11-28T00:33:05.046Z,77785.84
2022-11-28T00:35:32.728Z,77781.63
2022-11-28T00:38:00.389Z,77771.03
2022-11-28T00:40:28.049Z,77756.22
2022-11-28T00:42:55.697Z,77751.97
2022-11-28T00:45:24.723Z,77743.50
2022-11-28T00:47:52.463Z,77739.28
2022-11-28T00:50:20.468Z,77754.09
2022-11-28T00:52:48.088Z,77751.97
2022-11-28T00:55:16.034Z,77760.44
2022-11-28T00:57:43.710Z,77758.31
2022-11-28T01:00:12.253Z,77745.63
2022-11-28T01:02:41.507Z,77747.75
2022-11-28T01:05:10.265Z,77760.44
2022-11-28T01:07:42.401Z,77764.69
2022-11-28T01:10:12.440Z,77760.44
2022-11-28T01:12:40.072Z,77760.44
2022-11-28T01:15:11.422Z,77739.28
2022-11-28T01:17:39.225Z,77745.63
2022-11-28T01:20:10.535Z,77737.16
2022-11-28T01:22:38.260Z,77735.03
2022-11-28T01:25:06.451Z,77735.03
2022-11-28T01:27:34.205Z,77728.69
2022-11-28T01:30:02.005Z,77739.28
2022-11-28T01:32:29.699Z,77756.22
2022-11-28T01:34:57.862Z,77756.22
2022-11-28T01:37:26.869Z,77741.38
2022-11-28T01:39:54.529Z,77726.56
2022-11-28T01:42:22.295Z,77715.97
2022-11-28T01:45:06.218Z,77713.84
2022-11-28T01:47:35.071Z,77703.28
2022-11-28T01:50:04.927Z,77696.91
2022-11-28T01:52:35.195Z,77699.03
2022-11-28T01:55:03.457Z,77692.69
2022-11-28T01:57:31.176Z,77684.22
2022-11-28T02:00:02.586Z,77673.63
2022-11-28T02:02:34.206Z,77684.22
2022-11-28T02:05:01.992Z,77675.75
2022-11-28T02:07:29.656Z,77671.50
2022-11-28T02:09:58.815Z,77669.41
2022-11-28T02:12:37.824Z,77660.94
2022-11-28T02:15:24.353Z,77665.16
2022-11-28T02:18:03.562Z,77656.69
2022-11-28T02:21:05.475Z,77654.56
2022-11-28T02:23:52.453Z,77675.75
2022-11-28T02:26:36.516Z,77684.22
2022-11-28T02:29:26.762Z,77682.09
2022-11-28T02:32:14.283Z,77677.88
2022-11-28T02:34:47.504Z,77679.97
2022-11-28T02:37:20.016Z,77696.91
2022-11-28T02:39:55.282Z,77696.91
2022-11-28T02:42:26.553Z,77692.69
2022-11-28T02:44:56.921Z,77690.56
2022-11-28T02:47:29.917Z,77677.88
2022-11-28T02:50:02.285Z,77671.50
2022-11-28T02:52:30.512Z,77658.81
2022-11-28T02:54:58.493Z,77656.69
2022-11-28T02:57:31.057Z,77663.03
2022-11-28T02:59:58.717Z,77667.28
2022-11-28T03:02:30.302Z,77677.88
2022-11-28T03:05:02.328Z,77682.09
2022-11-28T03:07:40.899Z,77682.09
2022-11-28T03:10:19.088Z,77688.44
2022-11-28T03:12:53.053Z,77686.34
2022-11-28T03:15:23.769Z,77699.03
2022-11-28T03:18:00.981Z,77696.91
2022-11-28T03:20:32.752Z,77692.69
2022-11-28T03:23:08.084Z,77679.97
2022-11-28T03:25:38.854Z,77675.75
2022-11-28T03:28:09.972Z,77679.97
2022-11-28T03:30:41.413Z,77684.22
2022-11-28T03:33:10.943Z,77673.63
2022-11-28T03:35:43.754Z,77677.88
2022-11-28T03:38:16.239Z,77673.63
2022-11-28T03:40:47.473Z,77665.16
2022-11-28T03:43:18.132Z,77669.41
2022-11-28T03:45:48.026Z,77660.94
2022-11-28T03:48:21.784Z,77658.81
2022-11-28T03:50:52.105Z,77650.34
2022-11-28T03:53:22.747Z,77637.63
2022-11-28T03:55:53.941Z,77627.06
2022-11-28T03:58:25.909Z,77612.22
2022-11-28T04:01:00.222Z,77627.06
2022-11-28T04:03:37.796Z,77622.81
2022-11-28T04:06:09.514Z,77633.41
2022-11-28T04:08:41.771Z,77639.75
2022-11-28T04:11:12.306Z,77644.00
2022-11-28T04:13:44.075Z,77652.47
2022-11-28T04:16:15.205Z,77652.47
2022-11-28T04:18:52.115Z,77660.94
2022-11-28T04:21:21.662Z,77663.03
2022-11-28T04:23:50.528Z,77684.22
2022-11-28T04:26:20.801Z,77673.63
2022-11-28T04:28:49.876Z,77665.16
2022-11-28T04:31:19.228Z,77663.03
2022-11-28T04:33:52.086Z,77650.34
2022-11-28T04:36:21.492Z,77641.88
2022-11-28T04:38:56.373Z,77631.28
2022-11-28T04:41:27.908Z,77614.34
2022-11-28T04:43:59.848Z,77614.34
2022-11-28T04:46:31.533Z,77614.34
2022-11-28T04:49:01.586Z,77612.22
2022-11-28T04:51:33.215Z,77599.53
2022-11-28T04:54:02.688Z,77601.63
2022-11-28T04:56:33.966Z,77614.34
2022-11-28T04:59:02.157Z,77620.69
2022-11-28T05:01:31.658Z,77644.00
2022-11-28T05:04:00.913Z,77637.63
2022-11-28T05:06:31.145Z,77633.41
2022-11-28T05:08:59.168Z,77616.47
2022-11-28T05:11:27.006Z,77616.47
2022-11-28T05:13:54.961Z,77631.28
2022-11-28T05:16:22.839Z,77620.69
2022-11-28T05:18:50.964Z,77618.56
2022-11-28T05:21:19.968Z,77620.69
2022-11-28T05:23:47.820Z,77605.88
2022-11-28T05:26:18.365Z,77612.22
2022-11-28T05:28:46.804Z,77612.22
2022-11-28T05:31:15.062Z,77624.94
2022-11-28T05:33:42.918Z,77665.16
2022-11-28T05:36:13.568Z,77669.41
2022-11-28T05:38:43.042Z,77667.28
2022-11-28T05:41:11.095Z,77688.44
2022-11-28T05:43:38.717Z,77694.81
2022-11-28T05:46:06.970Z,77699.03
2022-11-28T05:48:34.838Z,77692.69
2022-11-28T05:51:04.884Z,77690.56
2022-11-28T05:53:32.707Z,77699.03
2022-11-28T05:56:01.837Z,77701.16
2022-11-28T05:58:29.446Z,77705.38
2022-11-28T06:00:57.163Z,77711.75
2022-11-28T06:03:24.862Z,77709.63
2022-11-28T06:05:52.506Z,77705.38
2022-11-28T06:08:20.259Z,77711.75
2022-11-28T06:10:57.393Z,77709.63
2022-11-28T06:13:27.946Z,77713.84
2022-11-28T06:15:55.592Z,77724.44
2022-11-28T06:18:23.181Z,77737.16
2022-11-28T06:20:50.861Z,77735.03
2022-11-28T06:23:18.467Z,77741.38
2022-11-28T06:25:46.088Z,77754.09
2022-11-28T06:28:13.793Z,77747.75
2022-11-28T06:30:44.217Z,77741.38
2022-11-28T06:33:12.389Z,77732.91
2022-11-28T06:35:40.111Z,77735.03
2022-11-28T06:38:11.497Z,77745.63
2022-11-28T06:40:42.108Z,77728.69
2022-11-28T06:43:09.760Z,77713.84
2022-11-28T06:45:37.550Z,77713.84
2022-11-28T06:48:07.164Z,77703.28
2022-11-28T06:50:34.768Z,77715.97
2022-11-28T06:53:02.450Z,77713.84
2022-11-28T06:55:30.863Z,77705.38
2022-11-28T06:57:58.449Z,77722.34
2022-11-28T07:00:26.374Z,77724.44
2022-11-28T07:02:54.452Z,77724.44
2022-11-28T07:05:27.539Z,77735.03
2022-11-28T07:07:55.258Z,77741.38
2022-11-28T07:10:23.388Z,77737.16
2022-11-28T07:12:54.842Z,77739.28
2022-11-28T07:15:22.533Z,77730.81
2022-11-28T07:17:50.189Z,77730.81
2022-11-28T07:20:18.509Z,77724.44
2022-11-28T07:22:48.886Z,77711.75
2022-11-28T07:25:16.641Z,77718.09
2022-11-28T07:27:44.739Z,77722.34
2022-11-28T07:30:12.716Z,77711.75
2022-11-28T07:32:41.115Z,77713.84
2022-11-28T07:35:13.101Z,77709.63
2022-11-28T07:37:40.681Z,77707.50
2022-11-28T07:40:10.394Z,77709.63
2022-11-28T07:42:38.157Z,77715.97
2022-11-28T07:45:07.104Z,77705.38
2022-11-28T07:47:35.145Z,77692.69
2022-11-28T07:50:03.417Z,77684.22
2022-11-28T07:52:31.084Z,77699.03
2022-11-28T07:54:58.717Z,77679.97
2022-11-28T07:57:28.027Z,77682.09
2022-11-28T07:59:55.621Z,77673.63
2022-11-28T08:02:23.385Z,77679.97
2022-11-28T08:04:55.129Z,77669.41
2022-11-28T08:07:23.136Z,77654.56
2022-11-28T08:09:50.890Z,77650.34
2022-11-28T08:12:18.506Z,77646.09
2022-11-28T08:14:47.468Z,77631.28
2022-11-28T08:17:15.209Z,77633.41
2022-11-28T08:19:42.794Z,77629.16
2022-11-28T08:22:10.548Z,77633.41
2022-11-28T08:24:38.408Z,77633.41
2022-11-28T08:27:06.398Z,77627.06
2022-11-28T08:29:34.057Z,77620.69
2022-11-28T08:32:03.193Z,77616.47
2022-11-28T08:34:30.837Z,77614.34
2022-11-28T08:36:59.127Z,77610.09
2022-11-28T08:39:26.877Z,77612.22
2022-11-28T08:41:57.110Z,77610.09
2022-11-28T08:44:25.100Z,77624.94
2022-11-28T08:46:52.818Z,77612.22
2022-11-28T08:49:21.867Z,77605.88
2022-11-28T08:51:49.545Z,77595.28
2022-11-28T08:54:17.211Z,77614.34
2022-11-28T08:56:46.780Z,77612.22
2022-11-28T08:59:14.422Z,77601.63
2022-11-28T09:01:42.145Z,77599.53
2022-11-28T09:04:09.882Z,77599.53
2022-11-28T09:06:41.522Z,77603.75
2022-11-28T09:09:23.584Z,77595.28
2022-11-28T09:11:51.248Z,77588.94
2022-11-28T09:14:18.903Z,77582.59
2022-11-28T09:16:46.627Z,77576.22
2022-11-28T09:19:14.282Z,77582.59
2022-11-28T09:21:43.685Z,77578.34
2022-11-28T09:24:13.856Z,77572.00
2022-11-28T09:26:41.589Z,77569.88
2022-11-28T09:29:09.394Z,77565.66
2022-11-28T09:31:36.992Z,77565.66
2022-11-28T09:34:04.968Z,77563.53
2022-11-28T09:36:33.426Z,77565.66
2022-11-28T09:39:03.577Z,77561.41
2022-11-28T09:41:43.322Z,77559.28
2022-11-28T09:44:16.586Z,77540.25
2022-11-28T09:46:45.148Z,77544.47
2022-11-28T09:49:21.849Z,77527.53
2022-11-28T09:51:53.577Z,77519.06
2022-11-28T09:54:29.822Z,77506.38
2022-11-28T09:56:58.002Z,77504.25
2022-11-28T09:59:27.968Z,77491.53
2022-11-28T10:02:03.289Z,77470.38
2022-11-28T10:04:39.552Z,77466.13
2022-11-28T10:07:12.983Z,77478.84
2022-11-28T10:09:57.958Z,77472.47
2022-11-28T10:12:33.640Z,77472.47
2022-11-28T10:15:12.604Z,77470.38
2022-11-28T10:17:46.725Z,77453.44
2022-11-28T10:20:18.715Z,77455.53
2022-11-28T10:22:51.309Z,77453.44
2022-11-28T10:25:23.962Z,77459.78
2022-11-28T10:27:52.100Z,77442.84
2022-11-28T10:30:23.786Z,77442.84
2022-11-28T10:32:56.656Z,77432.25
2022-11-28T10:35:28.729Z,77421.66
2022-11-28T10:37:56.892Z,77438.59
2022-11-28T10:40:34.699Z,77447.06
2022-11-28T10:43:04.182Z,77442.84
2022-11-28T10:45:38.774Z,77447.06
2022-11-28T10:48:38.547Z,77455.53
2022-11-28T10:51:09.421Z,77449.19
2022-11-28T10:53:42.750Z,77453.44
2022-11-28T10:56:19.761Z,77447.06
2022-11-28T10:58:55.161Z,77434.38
2022-11-28T11:01:23.077Z,77436.50
2022-11-28T11:03:50.918Z,77444.97
2022-11-28T11:06:18.538Z,77449.19
2022-11-28T11:08:46.912Z,77447.06
2022-11-28T11:11:24.433Z,77438.59
2022-11-28T11:13:59.115Z,77434.38
2022-11-28T11:16:26.826Z,77455.53
2022-11-28T11:18:55.915Z,77455.53
2022-11-28T11:21:25.521Z,77442.84
2022-11-28T11:24:12.126Z,77421.66
2022-11-28T11:26:43.659Z,77425.91
2022-11-28T11:29:22.345Z,77417.44
2022-11-28T11:31:53.090Z,77417.44
2022-11-28T11:34:22.570Z,77417.44
2022-11-28T11:36:50.665Z,77408.97
2022-11-28T11:39:23.936Z,77408.97
2022-11-28T11:42:11.403Z,77413.19
2022-11-28T11:44:39.173Z,77415.31
2022-11-28T11:47:08.179Z,77408.97
2022-11-28T11:49:37.499Z,77400.50
2022-11-28T11:52:07.621Z,77408.97
2022-11-28T11:54:35.293Z,77392.03
2022-11-28T11:57:31.953Z,77400.50
2022-11-28T11:59:54.539Z,77385.69
2022-11-28T12:02:25.921Z,77379.31
2022-11-28T12:05:01.132Z,77368.75
2022-11-28T12:07:33.703Z,77379.31
2022-11-28T12:10:04.529Z,77385.69
2022-11-28T12:12:36.529Z,77383.56
2022-11-28T12:15:05.734Z,77398.38
2022-11-28T12:20:44.971Z,77381.44
2022-11-28T12:23:23.420Z,77372.97
2022-11-28T12:25:56.335Z,77368.75
2022-11-28T12:28:37.351Z,77375.09
2022-11-28T12:31:13.806Z,77383.56
2022-11-28T12:33:48.846Z,77383.56
2022-11-28T12:36:23.704Z,77387.78
2022-11-28T12:39:10.099Z,77383.56
2022-11-28T12:41:55.110Z,77383.56
2022-11-28T12:44:29.825Z,77377.22
2022-11-28T12:47:02.564Z,77372.97
2022-11-28T12:49:36.195Z,77377.22
2022-11-28T12:52:14.308Z,77366.63
2022-11-28T12:54:54.438Z,77383.56
2022-11-28T12:57:29.403Z,77375.09
2022-11-28T13:00:06.737Z,77375.09
2022-11-28T13:02:42.380Z,77372.97
2022-11-28T13:05:23.037Z,77370.84
2022-11-28T13:08:05.131Z,77364.50
2022-11-28T13:10:38.405Z,77366.63
2022-11-28T13:13:09.661Z,77364.50
2022-11-28T13:15:47.393Z,77364.50
2022-11-28T13:18:25.467Z,77375.09
2022-11-28T13:20:57.054Z,77372.97
2022-11-28T13:23:29.347Z,77375.09
2022-11-28T13:25:58.072Z,77375.09
2022-11-28T13:28:29.537Z,77372.97
2022-11-28T13:31:03.822Z,77400.50
2022-11-28T13:33:50.494Z,77392.03
2022-11-28T13:39:16.754Z,77381.44
2022-11-28T13:44:39.443Z,77370.84
2022-11-28T13:47:31.271Z,77364.50
2022-11-28T13:50:47.736Z,77370.84
2022-11-28T13:53:23.928Z,77366.63
2022-11-28T13:55:53.266Z,77360.28
2022-11-28T13:58:28.360Z,77351.81
2022-11-28T14:01:09.671Z,77356.03
2022-11-28T14:03:47.012Z,77347.56
2022-11-28T14:06:17.284Z,77345.44
2022-11-28T14:08:46.311Z,77339.09
2022-11-28T14:11:35.306Z,77347.56
2022-11-28T14:14:13.434Z,77343.34
2022-11-28T14:16:52.229Z,77358.16
2022-11-28T14:19:31.764Z,77364.50
2022-11-28T14:22:17.948Z,77370.84
2022-11-28T14:24:55.226Z,77372.97
2022-11-28T14:27:24.676Z,77379.31
2022-11-28T14:29:55.159Z,77372.97
2022-11-28T14:32:30.526Z,77375.09
2022-11-28T14:35:00.635Z,77372.97
2022-11-28T14:37:53.925Z,77375.09
2022-11-28T14:41:04.459Z,77392.03
2022-11-28T14:43:33.541Z,77396.25
2022-11-28T14:46:31.818Z,77387.78
2022-11-28T14:49:22.761Z,77404.72
2022-11-28T14:55:16.662Z,77396.25
2022-11-28T14:57:57.043Z,77400.50
2022-11-28T15:00:26.701Z,77404.72
2022-11-28T15:03:09.262Z,77404.72
2022-11-28T15:05:38.036Z,77398.38
2022-11-28T15:08:45.404Z,77404.72
2022-11-28T15:11:21.914Z,77404.72
2022-11-28T15:14:06.549Z,77415.31
2022-11-28T15:16:35.138Z,77413.19
2022-11-28T15:19:07.601Z,77413.19
2022-11-28T15:21:43.857Z,77425.91
2022-11-28T15:24:30.943Z,77421.66
2022-11-28T15:27:00.143Z,77421.66
2022-11-28T15:29:29.077Z,77413.19
2022-11-28T15:31:58.021Z,77408.97
2022-11-28T15:34:28.050Z,77417.44
2022-11-28T15:36:57.348Z,77419.56
2022-11-28T15:39:35.277Z,77423.78
2022-11-28T15:42:05.688Z,77432.25
2022-11-28T15:44:33.540Z,77444.97
2022-11-28T15:47:02.002Z,77444.97
2022-11-28T15:49:31.689Z,77442.84
2022-11-28T15:52:01.267Z,77444.97
2022-11-28T15:54:36.228Z,77438.59
2022-11-28T15:57:04.482Z,77447.06
2022-11-28T15:59:32.424Z,77432.25
2022-11-28T16:02:02.769Z,77444.97
2022-11-28T16:04:31.054Z,77444.97
2022-11-28T16:07:00.687Z,77438.59
2022-11-28T16:09:31.886Z,77449.19
2022-11-28T16:12:01.555Z,77442.84
2022-11-28T16:14:32.709Z,77428.03
2022-11-28T16:17:03.004Z,77434.38
2022-11-28T16:19:32.740Z,77430.13
2022-11-28T16:22:03.021Z,77425.91
2022-11-28T16:24:38.511Z,77423.78
2022-11-28T16:27:08.689Z,77434.38
2022-11-28T16:29:37.655Z,77428.03
2022-11-28T16:32:12.119Z,77425.91
2022-11-28T16:34:47.320Z,77413.19
2022-11-28T16:37:20.851Z,77415.31
2022-11-28T16:39:48.902Z,77425.91
2022-11-28T16:42:21.011Z,77419.56
2022-11-28T16:44:49.330Z,77425.91
2022-11-28T16:47:38.912Z,77425.91
2022-11-28T16:50:19.986Z,77425.91
2022-11-28T16:52:58.760Z,77423.78
2022-11-28T16:55:51.747Z,77423.78
2022-11-28T16:58:23.233Z,77434.38
2022-11-28T17:01:02.359Z,77438.59
2022-11-28T17:03:47.751Z,77438.59
2022-11-28T17:06:25.188Z,77451.31
2022-11-28T17:08:53.076Z,77447.06
2022-11-28T17:11:23.324Z,77453.44
2022-11-28T17:13:56.141Z,77459.78
2022-11-28T17:16:26.465Z,77474.59
2022-11-28T17:18:56.952Z,77468.25
2022-11-28T17:21:32.207Z,77464.00
2022-11-28T17:24:07.499Z,77472.47
2022-11-28T17:26:35.142Z,77464.00
2022-11-28T17:29:04.248Z,77466.13
2022-11-28T17:31:33.022Z,77489.41
2022-11-28T17:34:00.678Z,77504.25
2022-11-28T17:36:28.564Z,77516.94
2022-11-28T17:39:00.970Z,77502.13
2022-11-28T17:41:31.432Z,77506.38
2022-11-28T17:43:59.809Z,77519.06
2022-11-28T17:46:28.887Z,77536.00
2022-11-28T17:48:57.670Z,77552.94
2022-11-28T17:51:26.199Z,77546.59
2022-11-28T17:53:54.238Z,77538.13
2022-11-28T17:56:22.086Z,77531.78
2022-11-28T17:58:50.504Z,77542.34
2022-11-28T18:01:21.459Z,77559.28
2022-11-28T18:03:52.879Z,77567.75
2022-11-28T18:06:21.703Z,77582.59
2022-11-28T18:08:50.663Z,77580.47
2022-11-28T18:11:20.369Z,77588.94
2022-11-28T18:13:48.057Z,77597.41
2022-11-28T18:16:17.203Z,77595.28
2022-11-28T18:18:46.157Z,77586.81
2022-11-28T18:21:16.145Z,77582.59
2022-11-28T18:23:45.439Z,77588.94
2022-11-28T18:26:18.284Z,77586.81
2022-11-28T18:28:45.982Z,77586.81
2022-11-28T18:31:17.479Z,77591.06
2022-11-28T18:33:46.596Z,77580.47
2022-11-28T18:36:18.168Z,77586.81
2022-11-28T18:38:46.375Z,77580.47
2022-11-28T18:41:15.681Z,77578.34
2022-11-28T18:43:44.786Z,77591.06
2022-11-28T18:46:14.382Z,77586.81
2022-11-28T18:48:43.786Z,77599.53
2022-11-28T18:51:14.488Z,77582.59
2022-11-28T18:53:44.059Z,77574.13
2022-11-28T18:56:13.435Z,77578.34
2022-11-28T18:58:42.773Z,77586.81
2022-11-28T19:01:11.847Z,77580.47
2022-11-28T19:03:40.955Z,77599.53
2022-11-28T19:06:10.494Z,77591.06
2022-11-28T19:08:39.725Z,77603.75
2022-11-28T19:11:15.848Z,77612.22
2022-11-28T19:13:44.834Z,77610.09
2022-11-28T19:16:16.529Z,77616.47
2022-11-28T19:18:44.420Z,77618.56
2022-11-28T19:21:13.859Z,77624.94
2022-11-28T19:23:41.769Z,77624.94
2022-11-28T19:26:13.706Z,77635.50
2022-11-28T19:28:42.832Z,77633.41
2022-11-28T19:31:15.010Z,77635.50
2022-11-28T19:33:43.291Z,77637.63
2022-11-28T19:36:13.414Z,77646.09
2022-11-28T19:38:45.294Z,77646.09
2022-11-28T19:41:16.082Z,77637.63
2022-11-28T19:43:44.128Z,77637.63
2022-11-28T19:46:14.194Z,77633.41
2022-11-28T19:48:43.297Z,77646.09
2022-11-28T19:51:12.871Z,77654.56
2022-11-28T19:53:42.713Z,77650.34
2022-11-28T19:56:14.266Z,77648.22
2022-11-28T19:58:42.406Z,77658.81
2022-11-28T20:01:14.546Z,77650.34
2022-11-28T20:03:43.066Z,77669.41
2022-11-28T20:06:11.389Z,77658.81
2022-11-28T20:08:40.030Z,77663.03
2022-11-28T20:11:11.800Z,77671.50
2022-11-28T20:13:41.165Z,77675.75
2022-11-28T20:16:10.143Z,77677.88
2022-11-28T20:18:38.666Z,77686.34
2022-11-28T20:21:07.565Z,77699.03
2022-11-28T20:23:35.501Z,77703.28
2022-11-28T20:26:04.648Z,77692.69
2022-11-28T20:28:34.906Z,77699.03
2022-11-28T20:31:04.702Z,77696.91
2022-11-28T20:33:32.510Z,77694.81
2022-11-28T20:36:07.329Z,77690.56
2022-11-28T20:38:35.053Z,77684.22
2022-11-28T20:41:03.100Z,77667.28
2022-11-28T20:43:31.297Z,77663.03
2022-11-28T20:46:04.599Z,77669.41
2022-11-28T20:48:32.806Z,77684.22
2022-11-28T20:51:00.558Z,77688.44
2022-11-28T20:53:28.618Z,77684.22
2022-11-28T20:56:01.212Z,77688.44
2022-11-28T20:58:30.004Z,77679.97
2022-11-28T21:00:57.778Z,77684.22
2022-11-28T21:03:27.089Z,77667.28
2022-11-28T21:05:59.514Z,77660.94
2022-11-28T21:08:30.521Z,77663.03
2022-11-28T21:10:58.168Z,77684.22
2022-11-28T21:13:26.068Z,77671.50
2022-11-28T21:15:54.044Z,77679.97
2022-11-28T21:18:21.766Z,77665.16
2022-11-28T21:20:52.823Z,77667.28
2022-11-28T21:23:20.500Z,77677.88
2022-11-28T21:25:48.105Z,77677.88
2022-11-28T21:28:15.758Z,77667.28
2022-11-28T21:30:44.789Z,77663.03
2022-11-28T21:33:13.372Z,77673.63
2022-11-28T21:35:41.401Z,77684.22
2022-11-28T21:38:10.547Z,77673.63
2022-11-28T21:40:38.200Z,77669.41
2022-11-28T21:43:05.868Z,77669.41
2022-11-28T21:45:34.927Z,77667.28
2022-11-28T21:48:02.627Z,77675.75
2022-11-28T21:50:30.270Z,77667.28
2022-11-28T21:52:57.898Z,77673.63
2022-11-28T21:55:26.873Z,77654.56
2022-11-28T21:57:54.468Z,77663.03
2022-11-28T22:00:51.594Z,77669.41
2022-11-28T22:03:14.299Z,77667.28
2022-11-28T22:05:42.232Z,77669.41
2022-11-28T22:08:10.717Z,77660.94
2022-11-28T22:10:39.728Z,77669.41
2022-11-28T22:13:07.321Z,77673.63
2022-11-28T22:15:35.066Z,77656.69
2022-11-28T22:18:02.818Z,77650.34
2022-11-28T22:20:30.498Z,77650.34
2022-11-28T22:22:58.116Z,77650.34
2022-11-28T22:25:25.725Z,77644.00
2022-11-28T22:27:54.681Z,77637.63
2022-11-28T22:30:22.548Z,77637.63
2022-11-28T22:32:51.798Z,77637.63
2022-11-28T22:35:19.541Z,77641.88
2022-11-28T22:37:47.133Z,77654.56
2022-11-28T22:40:16.233Z,77656.69
2022-11-28T22:42:43.834Z,77650.34
2022-11-28T22:45:12.800Z,77637.63
2022-11-28T22:47:40.408Z,77633.41
2022-11-28T22:50:09.028Z,77633.41
2022-11-28T22:52:36.644Z,77637.63
2022-11-28T22:55:04.394Z,77644.00
2022-11-28T22:57:32.347Z,77648.22
2022-11-28T22:59:59.989Z,77654.56
2022-11-28T23:02:29.387Z,77667.28
2022-11-28T23:04:57.684Z,77654.56
2022-11-28T23:07:25.361Z,77650.34
2022-11-28T23:09:53.070Z,77639.75
2022-11-28T23:12:20.752Z,77650.34
2022-11-28T23:14:51.492Z,77658.81
2022-11-28T23:17:19.469Z,77658.81
2022-11-28T23:19:48.696Z,77667.28
2022-11-28T23:22:16.296Z,77658.81
2022-11-28T23:24:44.175Z,77658.81
2022-11-28T23:27:11.885Z,77646.09
2022-11-28T23:29:39.542Z,77658.81
2022-11-28T23:32:07.320Z,77660.94
2022-11-28T23:34:35.013Z,77658.81
2022-11-28T23:37:04.117Z,77667.28
2022-11-28T23:39:31.756Z,77663.03
2022-11-28T23:41:59.897Z,77654.56
2022-11-28T23:44:27.548Z,77650.34
2022-11-28T23:46:55.114Z,77648.22
2022-11-28T23:49:22.738Z,77646.09
2022-11-28T23:51:50.349Z,77650.34
2022-11-28T23:54:19.397Z,77644.00
2022-11-28T23:56:47.053Z,77660.94
2022-11-28T23:59:14.661Z,77665.16
